createdAt,value
2023-05-24T00:01:51.797Z,16.87
2023-05-24T00:04:19.937Z,13.10
2023-05-24T00:06:48.489Z,13.37
2023-05-24T00:09:15.503Z,9.67
2023-05-24T00:11:42.501Z,15.00
2023-05-24T00:14:09.577Z,19.60
2023-05-24T00:16:37.200Z,11.77
2023-05-24T00:19:04.216Z,16.30
2023-05-24T00:21:32.183Z,11.70
2023-05-24T00:23:59.408Z,14.43
2023-05-24T00:26:26.736Z,8.70
2023-05-24T00:28:53.786Z,11.60
2023-05-24T00:31:20.891Z,12.50
2023-05-24T00:33:47.947Z,11.13
2023-05-24T00:36:14.864Z,13.30
2023-05-24T00:38:41.919Z,11.57
2023-05-24T00:41:08.872Z,18.10
2023-05-24T00:43:36.890Z,9.97
2023-05-24T00:46:34.080Z,12.93
2023-05-24T00:49:02.049Z,14.40
2023-05-24T00:51:29.283Z,12.40
2023-05-24T00:53:56.995Z,13.50
2023-05-24T00:56:24.069Z,9.87
2023-05-24T00:58:54.796Z,14.13
2023-05-24T01:01:25.904Z,7.97
2023-05-24T01:03:54.670Z,15.33
2023-05-24T01:06:23.590Z,10.97
2023-05-24T01:09:17.692Z,8.43
2023-05-24T01:12:22.143Z,10.30
2023-05-24T01:14:54.718Z,15.63
2023-05-24T01:17:27.802Z,9.37
2023-05-24T01:20:02.489Z,13.63
2023-05-24T01:23:17.221Z,15.70
2023-05-24T01:25:52.895Z,13.37
2023-05-24T01:28:20.630Z,17.97
2023-05-24T01:30:48.267Z,10.53
2023-05-24T01:33:15.517Z,14.93
2023-05-24T01:35:42.823Z,10.40
2023-05-24T01:38:13.162Z,16.10
2023-05-24T01:40:41.504Z,10.90
2023-05-24T01:43:31.794Z,11.03
2023-05-24T01:46:20.361Z,13.60
2023-05-24T01:49:18.031Z,13.20
2023-05-24T01:51:59.855Z,8.37
2023-05-24T01:54:32.082Z,12.57
2023-05-24T01:57:00.218Z,10.97
2023-05-24T01:59:30.299Z,14.20
2023-05-24T02:01:57.890Z,9.23
2023-05-24T02:04:25.438Z,12.57
2023-05-24T02:06:52.459Z,18.73
2023-05-24T02:09:19.395Z,12.60
2023-05-24T02:11:46.437Z,13.43
2023-05-24T02:14:13.443Z,19.07
2023-05-24T02:16:42.704Z,12.13
2023-05-24T02:19:10.005Z,9.57
2023-05-24T02:21:36.981Z,12.40
2023-05-24T02:24:04.125Z,15.93
2023-05-24T02:26:31.094Z,12.03
2023-05-24T02:28:58.007Z,13.20
2023-05-24T02:31:28.799Z,10.80
2023-05-24T02:33:57.241Z,14.10
2023-05-24T02:36:24.673Z,16.60
2023-05-24T02:38:52.027Z,16.90
2023-05-24T02:41:19.859Z,12.63
2023-05-24T02:43:47.920Z,10.03
2023-05-24T02:46:15.639Z,10.57
2023-05-24T02:48:42.676Z,9.07
2023-05-24T02:51:09.593Z,10.67
2023-05-24T02:53:36.626Z,12.87
2023-05-24T02:56:03.691Z,15.23
2023-05-24T02:58:30.697Z,16.97
2023-05-24T03:00:57.652Z,13.90
2023-05-24T03:03:24.858Z,10.57
2023-05-24T03:05:52.036Z,13.20
2023-05-24T03:08:19.459Z,7.03
2023-05-24T03:10:53.856Z,7.07
2023-05-24T03:13:20.907Z,11.93
2023-05-24T03:15:48.387Z,9.03
2023-05-24T03:18:15.431Z,14.03
2023-05-24T03:20:42.658Z,11.53
2023-05-24T03:23:28.527Z,13.23
2023-05-24T03:25:55.730Z,11.40
2023-05-24T03:28:22.721Z,8.50
2023-05-24T03:30:49.760Z,15.23
2023-05-24T03:33:16.848Z,17.67
2023-05-24T03:35:43.752Z,17.87
2023-05-24T03:38:11.025Z,15.90
2023-05-24T03:40:38.504Z,8.73
2023-05-24T03:43:05.518Z,11.37
2023-05-24T03:45:39.428Z,11.87
2023-05-24T03:48:07.523Z,13.53
2023-05-24T03:50:34.966Z,11.57
2023-05-24T03:53:01.876Z,15.93
2023-05-24T03:55:28.809Z,15.13
2023-05-24T03:57:55.787Z,16.73
2023-05-24T04:00:22.809Z,14.73
2023-05-24T04:02:50.046Z,11.13
2023-05-24T04:05:18.199Z,14.17
2023-05-24T04:07:46.430Z,15.77
2023-05-24T04:10:13.653Z,12.00
2023-05-24T04:12:42.122Z,18.73
2023-05-24T04:15:09.963Z,13.60
2023-05-24T04:17:37.351Z,14.93
2023-05-24T04:20:06.003Z,14.63
2023-05-24T04:22:32.986Z,19.33
2023-05-24T04:25:00.325Z,14.70
2023-05-24T04:27:27.560Z,18.30
2023-05-24T04:29:54.563Z,23.87
2023-05-24T04:32:21.658Z,28.90
2023-05-24T04:34:48.740Z,19.03
2023-05-24T04:37:17.281Z,18.33
2023-05-24T04:39:45.721Z,15.10
2023-05-24T04:42:13.659Z,19.17
2023-05-24T04:44:41.487Z,13.77
2023-05-24T04:47:09.839Z,18.67
2023-05-24T04:49:36.824Z,17.27
2023-05-24T04:52:03.982Z,22.13
2023-05-24T04:54:30.983Z,26.97
2023-05-24T04:56:57.957Z,23.27
2023-05-24T04:59:25.228Z,22.70
2023-05-24T05:01:52.225Z,24.83
2023-05-24T05:04:19.246Z,25.17
2023-05-24T05:06:47.633Z,20.13
2023-05-24T05:09:15.805Z,26.13
2023-05-24T05:11:43.321Z,23.70
2023-05-24T05:14:10.500Z,23.40
2023-05-24T05:16:41.971Z,26.20
2023-05-24T05:19:09.023Z,21.33
2023-05-24T05:21:36.699Z,25.10
2023-05-24T05:24:04.234Z,25.20
2023-05-24T05:26:31.539Z,24.27
2023-05-24T05:28:58.876Z,28.90
2023-05-24T05:31:26.151Z,30.53
2023-05-24T05:33:53.255Z,32.00
2023-05-24T05:36:20.175Z,27.43
2023-05-24T05:38:47.163Z,30.63
2023-05-24T05:41:14.122Z,36.47
2023-05-24T05:43:41.061Z,29.60
2023-05-24T05:46:08.242Z,39.10
2023-05-24T05:48:35.467Z,28.73
2023-05-24T05:51:02.449Z,27.40
2023-05-24T05:53:29.405Z,27.83
2023-05-24T05:55:56.607Z,31.37
2023-05-24T05:58:23.611Z,35.70
2023-05-24T06:00:51.064Z,35.90
2023-05-24T06:03:18.399Z,32.50
2023-05-24T06:05:45.600Z,30.33
2023-05-24T06:08:12.520Z,32.33
2023-05-24T06:10:39.494Z,31.90
2023-05-24T06:13:06.500Z,34.60
2023-05-24T06:15:34.475Z,23.40
2023-05-24T06:18:02.441Z,21.90
2023-05-24T06:20:29.547Z,31.20
2023-05-24T06:22:57.405Z,22.23
2023-05-24T06:25:24.612Z,29.03
2023-05-24T06:27:51.856Z,25.87
2023-05-24T06:30:19.228Z,22.57
2023-05-24T06:32:46.249Z,25.93
2023-05-24T06:35:13.679Z,30.37
2023-05-24T06:37:40.885Z,21.83
2023-05-24T06:40:11.529Z,21.60
2023-05-24T06:42:39.463Z,20.63
2023-05-24T06:45:08.386Z,20.73
2023-05-24T06:47:36.161Z,24.27
2023-05-24T06:50:04.745Z,16.30
2023-05-24T06:52:31.672Z,22.80
2023-05-24T06:54:58.650Z,25.17
2023-05-24T06:57:26.782Z,22.20
2023-05-24T06:59:53.772Z,27.80
2023-05-24T07:02:26.623Z,19.30
2023-05-24T07:04:54.213Z,23.23
2023-05-24T07:07:21.433Z,24.83
2023-05-24T07:09:48.436Z,21.83
2023-05-24T07:12:15.428Z,21.88
2023-05-24T07:14:42.776Z,22.00
2023-05-24T07:17:09.960Z,23.87
2023-05-24T07:19:37.197Z,23.47
2023-05-24T07:22:04.226Z,21.53
2023-05-24T07:24:31.354Z,27.50
2023-05-24T07:26:58.380Z,24.65
2023-05-24T07:29:26.159Z,18.58
2023-05-24T07:31:56.431Z,20.63
2023-05-24T07:34:27.390Z,17.00
2023-05-24T07:36:54.417Z,19.02
2023-05-24T07:39:21.444Z,21.40
2023-05-24T07:41:48.400Z,21.73
2023-05-24T07:44:15.791Z,19.25
2023-05-24T07:46:42.810Z,16.52
2023-05-24T07:49:09.781Z,19.20
2023-05-24T07:51:36.990Z,11.93
2023-05-24T07:54:04.067Z,23.02
2023-05-24T07:56:32.157Z,19.05
2023-05-24T07:59:05.109Z,25.02
2023-05-24T08:01:34.417Z,16.63
2023-05-24T08:04:04.269Z,15.00
2023-05-24T08:06:32.843Z,25.30
2023-05-24T08:08:59.892Z,21.63
2023-05-24T08:11:27.483Z,22.88
2023-05-24T08:13:54.417Z,24.67
2023-05-24T08:16:21.499Z,18.30
2023-05-24T08:18:48.497Z,20.20
2023-05-24T08:21:15.655Z,20.35
2023-05-24T08:23:42.914Z,21.65
2023-05-24T08:26:09.897Z,31.35
2023-05-24T08:28:37.010Z,20.55
2023-05-24T08:31:04.470Z,19.75
2023-05-24T08:33:32.254Z,16.88
2023-05-24T08:35:59.189Z,26.23
2023-05-24T08:38:26.268Z,26.20
2023-05-24T08:40:53.466Z,18.48
2023-05-24T08:43:21.559Z,22.30
2023-05-24T08:45:50.033Z,26.65
2023-05-24T08:48:18.715Z,23.27
2023-05-24T08:50:46.589Z,18.13
2023-05-24T08:53:14.601Z,22.98
2023-05-24T08:55:44.053Z,18.83
2023-05-24T08:58:11.652Z,22.10
2023-05-24T09:00:38.571Z,21.10
2023-05-24T09:03:06.841Z,19.33
2023-05-24T09:05:34.757Z,25.08
2023-05-24T09:08:02.994Z,22.60
2023-05-24T09:10:44.901Z,20.42
2023-05-24T09:13:19.915Z,23.40
2023-05-24T09:15:47.061Z,20.30
2023-05-24T09:18:14.130Z,18.50
2023-05-24T09:20:41.481Z,21.95
2023-05-24T09:23:09.602Z,23.85
2023-05-24T09:25:36.670Z,18.67
2023-05-24T09:28:10.227Z,22.20
2023-05-24T09:30:37.337Z,22.50
2023-05-24T09:33:08.433Z,18.42
2023-05-24T09:35:36.976Z,16.42
2023-05-24T09:38:04.055Z,17.77
2023-05-24T09:40:31.089Z,19.27
2023-05-24T09:43:09.941Z,16.83
2023-05-24T09:45:49.069Z,18.27
2023-05-24T09:48:17.520Z,17.55
2023-05-24T09:50:47.772Z,17.33
2023-05-24T09:53:19.244Z,17.30
2023-05-24T09:55:46.392Z,16.90
2023-05-24T09:58:13.853Z,18.35
2023-05-24T10:00:42.292Z,21.45
2023-05-24T10:03:11.976Z,17.30
2023-05-24T10:05:42.942Z,15.55
2023-05-24T10:08:11.747Z,15.48
2023-05-24T10:10:38.669Z,13.52
2023-05-24T10:13:05.838Z,16.25
2023-05-24T10:15:32.814Z,14.73
2023-05-24T10:18:01.996Z,14.00
2023-05-24T10:20:29.878Z,13.80
2023-05-24T10:23:04.079Z,16.67
2023-05-24T10:25:35.238Z,14.32
2023-05-24T10:28:08.594Z,14.85
2023-05-24T10:30:53.057Z,15.50
2023-05-24T10:33:21.865Z,10.68
2023-05-24T10:35:49.203Z,17.33
2023-05-24T10:38:16.693Z,11.95
2023-05-24T10:40:43.965Z,14.05
2023-05-24T10:43:11.161Z,14.25
2023-05-24T10:45:40.505Z,11.35
2023-05-24T10:48:13.569Z,12.25
2023-05-24T10:50:42.081Z,17.60
2023-05-24T10:53:15.705Z,11.80
2023-05-24T10:56:09.456Z,13.45
2023-05-24T10:58:55.402Z,15.18
2023-05-24T11:01:41.095Z,15.55
2023-05-24T11:04:16.221Z,14.60
2023-05-24T11:07:06.270Z,19.48
2023-05-24T11:09:33.699Z,13.57
2023-05-24T11:12:07.692Z,16.10
2023-05-24T11:14:42.448Z,15.95
2023-05-24T11:17:10.632Z,15.63
2023-05-24T11:19:46.158Z,15.07
2023-05-24T11:22:17.793Z,11.80
2023-05-24T11:24:45.709Z,12.48
2023-05-24T11:27:14.293Z,14.40
2023-05-24T11:29:46.342Z,17.80
2023-05-24T11:32:22.007Z,16.92
2023-05-24T11:34:49.909Z,17.63
2023-05-24T11:37:18.589Z,10.70
2023-05-24T11:39:54.272Z,15.45
2023-05-24T11:42:23.414Z,11.57
2023-05-24T11:44:52.068Z,15.07
2023-05-24T11:47:22.459Z,15.98
2023-05-24T11:49:52.783Z,16.75
2023-05-24T11:52:20.577Z,16.17
2023-05-24T11:54:49.064Z,12.50
2023-05-24T11:57:19.404Z,14.18
2023-05-24T11:59:47.038Z,15.70
2023-05-24T12:02:14.450Z,11.60
2023-05-24T12:04:41.466Z,16.25
2023-05-24T12:07:12.582Z,13.13
2023-05-24T12:09:39.542Z,14.10
2023-05-24T12:12:07.383Z,15.32
2023-05-24T12:14:38.745Z,18.95
2023-05-24T12:17:05.946Z,12.48
2023-05-24T12:19:37.449Z,14.00
2023-05-24T12:22:07.229Z,14.43
2023-05-24T12:24:35.629Z,17.13
2023-05-24T12:27:08.674Z,18.05
2023-05-24T12:29:42.065Z,15.77
2023-05-24T12:32:15.150Z,15.95
2023-05-24T12:34:44.506Z,17.42
2023-05-24T12:37:12.791Z,13.65
2023-05-24T12:39:42.577Z,13.75
2023-05-24T12:42:12.891Z,16.08
2023-05-24T12:44:40.441Z,16.27
2023-05-24T12:47:09.129Z,16.05
2023-05-24T12:49:36.557Z,16.83
2023-05-24T12:52:03.920Z,15.15
2023-05-24T12:54:30.981Z,11.95
2023-05-24T12:57:03.323Z,15.90
2023-05-24T12:59:30.515Z,14.55
2023-05-24T13:01:58.070Z,13.38
2023-05-24T13:04:28.109Z,15.35
2023-05-24T13:06:55.516Z,10.35
2023-05-24T13:09:23.464Z,12.65
2023-05-24T13:11:51.524Z,12.77
2023-05-24T13:14:19.783Z,15.00
2023-05-24T13:16:47.476Z,13.77
2023-05-24T13:19:14.572Z,13.50
2023-05-24T13:21:41.702Z,16.35
2023-05-24T13:24:09.004Z,10.82
2023-05-24T13:26:45.298Z,11.18
2023-05-24T13:31:43.136Z,9.25
2023-05-24T13:34:12.969Z,10.30
2023-05-24T13:36:39.966Z,10.40
2023-05-24T13:41:40.360Z,10.90
2023-05-24T13:44:07.458Z,9.77
2023-05-24T13:46:36.276Z,9.88
2023-05-24T13:49:03.708Z,9.75
2023-05-24T13:51:30.816Z,11.43
2023-05-24T13:53:57.884Z,9.23
2023-05-24T13:56:25.988Z,12.07
2023-05-24T13:58:53.529Z,12.55
2023-05-24T14:01:20.898Z,9.32
2023-05-24T14:03:48.021Z,9.88
2023-05-24T14:06:15.046Z,11.02
2023-05-24T14:08:42.589Z,8.00
2023-05-24T14:11:09.603Z,12.32
2023-05-24T14:16:07.465Z,11.18
2023-05-24T14:18:35.976Z,8.52
2023-05-24T14:21:03.690Z,9.23
2023-05-24T14:23:31.941Z,9.95
2023-05-24T14:26:02.711Z,11.75
2023-05-24T14:28:29.710Z,8.18
2023-05-24T14:30:56.649Z,11.15
2023-05-24T14:33:23.654Z,11.35
2023-05-24T14:35:51.728Z,11.32
2023-05-24T14:38:18.800Z,11.32
2023-05-24T14:40:48.222Z,9.48
2023-05-24T14:43:15.414Z,10.00
2023-05-24T14:45:43.210Z,13.02
2023-05-24T14:48:11.765Z,13.38
2023-05-24T14:50:40.785Z,8.90
2023-05-24T14:53:11.881Z,11.25
2023-05-24T14:55:41.121Z,14.38
2023-05-24T14:58:12.062Z,14.90
2023-05-24T15:00:40.329Z,13.50
2023-05-24T15:03:08.140Z,14.38
2023-05-24T15:05:36.476Z,10.32
2023-05-24T15:08:05.448Z,13.75
2023-05-24T15:10:33.551Z,13.82
2023-05-24T15:13:01.422Z,13.63
2023-05-24T15:15:29.177Z,11.90
2023-05-24T15:17:57.664Z,12.25
2023-05-24T15:20:25.923Z,11.35
2023-05-24T15:22:53.710Z,10.73
2023-05-24T15:25:21.043Z,14.73
2023-05-24T15:27:48.400Z,13.82
2023-05-24T15:30:17.389Z,17.23
2023-05-24T15:32:46.477Z,12.85
2023-05-24T15:35:13.720Z,11.70
2023-05-24T15:37:41.533Z,12.43
2023-05-24T15:40:11.117Z,12.75
2023-05-24T15:42:38.159Z,12.63
2023-05-24T15:45:06.424Z,10.63
2023-05-24T15:47:39.446Z,11.77
2023-05-24T15:50:08.857Z,12.48
2023-05-24T15:52:36.460Z,9.68
2023-05-24T15:55:03.811Z,13.18
2023-05-24T15:57:31.478Z,11.00
2023-05-24T15:59:58.448Z,14.43
2023-05-24T16:02:25.695Z,11.45
2023-05-24T16:04:52.810Z,12.73
2023-05-24T16:07:19.758Z,8.43
2023-05-24T16:09:47.020Z,10.80
2023-05-24T16:12:13.998Z,11.82
2023-05-24T16:14:40.969Z,13.30
2023-05-24T16:17:08.238Z,11.32
2023-05-24T16:19:35.253Z,15.55
2023-05-24T16:22:02.554Z,12.32
2023-05-24T16:24:29.582Z,14.60
2023-05-24T16:26:59.424Z,15.02
2023-05-24T16:29:26.677Z,10.60
2023-05-24T16:31:53.756Z,14.57
2023-05-24T16:34:23.576Z,19.75
2023-05-24T16:36:50.594Z,11.40
2023-05-24T16:39:17.880Z,12.27
2023-05-24T16:41:45.058Z,13.55
2023-05-24T16:44:17.521Z,13.27
2023-05-24T16:46:45.655Z,12.38
2023-05-24T16:49:13.252Z,13.80
2023-05-24T16:51:40.618Z,15.05
2023-05-24T16:54:08.940Z,9.77
2023-05-24T16:56:37.869Z,9.30
2023-05-24T16:59:05.406Z,15.60
2023-05-24T17:01:32.655Z,11.98
2023-05-24T17:03:59.914Z,16.23
2023-05-24T17:06:27.092Z,11.75
2023-05-24T17:08:54.182Z,11.48
2023-05-24T17:11:23.085Z,11.20
2023-05-24T17:13:51.439Z,13.00
2023-05-24T17:16:18.925Z,8.90
2023-05-24T17:18:46.247Z,13.20
2023-05-24T17:21:13.233Z,15.05
2023-05-24T17:23:40.201Z,11.15
2023-05-24T17:26:08.213Z,12.35
2023-05-24T17:28:36.303Z,12.18
2023-05-24T17:31:04.256Z,17.25
2023-05-24T17:33:32.246Z,8.57
2023-05-24T17:36:04.210Z,11.80
2023-05-24T17:38:37.416Z,11.35
2023-05-24T17:41:07.815Z,9.30
2023-05-24T17:43:36.671Z,12.02
2023-05-24T17:46:06.775Z,14.85
2023-05-24T17:48:36.809Z,12.73
2023-05-24T17:51:06.446Z,8.80
2023-05-24T17:53:35.334Z,10.85
2023-05-24T17:56:03.448Z,14.68
2023-05-24T17:58:32.787Z,10.85
2023-05-24T18:00:59.818Z,14.52
2023-05-24T18:03:26.777Z,9.02
2023-05-24T18:05:53.800Z,12.52
2023-05-24T18:08:21.480Z,10.88
2023-05-24T18:10:48.603Z,13.45
2023-05-24T18:13:15.679Z,14.20
2023-05-24T18:15:42.911Z,13.60
2023-05-24T18:18:10.240Z,11.20
2023-05-24T18:20:37.355Z,12.20
2023-05-24T18:23:04.370Z,13.02
2023-05-24T18:25:31.523Z,11.27
2023-05-24T18:27:59.052Z,13.73
2023-05-24T18:30:26.194Z,15.10
2023-05-24T18:35:30.230Z,14.02
2023-05-24T18:37:57.155Z,13.98
2023-05-24T18:40:24.170Z,13.48
2023-05-24T18:42:51.789Z,13.27
2023-05-24T18:45:18.830Z,16.45
2023-05-24T18:47:45.871Z,15.48
2023-05-24T18:50:12.857Z,19.33
2023-05-24T18:52:39.956Z,13.05
2023-05-24T18:55:10.707Z,15.50
2023-05-24T18:57:38.531Z,18.08
2023-05-24T19:00:07.350Z,15.48
2023-05-24T19:02:39.193Z,17.15
2023-05-24T19:05:08.296Z,21.48
2023-05-24T19:07:35.921Z,11.80
2023-05-24T19:10:03.473Z,13.38
2023-05-24T19:12:30.587Z,17.83
2023-05-24T19:14:57.519Z,15.20
2023-05-24T19:17:25.314Z,15.05
2023-05-24T19:19:52.704Z,17.35
2023-05-24T19:22:19.868Z,17.08
2023-05-24T19:24:47.298Z,17.10
2023-05-24T19:27:14.651Z,12.50
2023-05-24T19:29:41.714Z,15.05
2023-05-24T19:32:08.947Z,12.65
2023-05-24T19:34:37.386Z,15.05
2023-05-24T19:37:04.720Z,18.83
2023-05-24T19:39:31.813Z,15.88
2023-05-24T19:41:58.794Z,15.30
2023-05-24T19:44:25.794Z,21.70
2023-05-24T19:46:52.762Z,13.73
2023-05-24T19:49:19.830Z,14.73
2023-05-24T19:51:46.929Z,17.92
2023-05-24T19:54:14.808Z,16.05
2023-05-24T19:56:41.823Z,14.98
2023-05-24T19:59:08.791Z,18.08
2023-05-24T20:01:36.094Z,17.65
2023-05-24T20:04:03.859Z,17.95
2023-05-24T20:06:31.453Z,18.02
2023-05-24T20:08:59.661Z,17.95
2023-05-24T20:11:26.833Z,18.60
2023-05-24T20:13:55.827Z,14.68
2023-05-24T20:16:23.500Z,11.55
2023-05-24T20:18:50.739Z,13.68
2023-05-24T20:21:18.979Z,13.85
2023-05-24T20:23:45.966Z,16.67
2023-05-24T20:26:13.070Z,14.60
2023-05-24T20:28:39.980Z,19.17
2023-05-24T20:31:07.200Z,18.95
2023-05-24T20:33:38.351Z,14.68
2023-05-24T20:36:05.976Z,15.52
2023-05-24T20:38:32.968Z,16.83
2023-05-24T20:41:00.197Z,21.27
2023-05-24T20:43:27.174Z,22.52
2023-05-24T20:45:54.737Z,26.80
2023-05-24T20:48:21.756Z,22.30
2023-05-24T20:50:48.784Z,18.70
2023-05-24T20:53:15.897Z,18.20
2023-05-24T20:55:43.151Z,15.27
2023-05-24T20:58:10.685Z,21.13
2023-05-24T21:00:39.591Z,18.07
2023-05-24T21:03:07.449Z,14.70
2023-05-24T21:05:36.515Z,16.83
2023-05-24T21:08:03.934Z,17.27
2023-05-24T21:10:32.265Z,21.45
2023-05-24T21:12:59.660Z,13.10
2023-05-24T21:15:26.611Z,19.15
2023-05-24T21:17:53.602Z,22.70
2023-05-24T21:20:21.083Z,18.83
2023-05-24T21:22:48.762Z,20.33
2023-05-24T21:25:15.893Z,23.83
2023-05-24T21:27:42.863Z,18.77
2023-05-24T21:30:10.229Z,14.38
2023-05-24T21:32:37.208Z,16.33
2023-05-24T21:35:04.586Z,15.37
2023-05-24T21:37:31.530Z,19.37
2023-05-24T21:39:58.536Z,20.00
2023-05-24T21:42:25.540Z,16.77
2023-05-24T21:44:52.471Z,19.87
2023-05-24T21:47:19.416Z,17.83
2023-05-24T21:49:46.341Z,17.47
2023-05-24T21:52:13.264Z,15.23
2023-05-24T21:54:40.296Z,15.93
2023-05-24T21:57:07.448Z,15.00
2023-05-24T21:59:34.467Z,13.20
2023-05-24T22:02:01.549Z,16.37
2023-05-24T22:04:28.505Z,17.37
2023-05-24T22:06:55.576Z,17.03
2023-05-24T22:09:22.689Z,17.83
2023-05-24T22:11:49.667Z,17.13
2023-05-24T22:14:16.665Z,16.80
2023-05-24T22:16:43.888Z,15.63
2023-05-24T22:19:16.660Z,14.60
2023-05-24T22:21:46.049Z,17.33
2023-05-24T22:24:13.652Z,16.60
2023-05-24T22:26:46.691Z,16.60
2023-05-24T22:29:13.883Z,18.47
2023-05-24T22:31:41.653Z,12.63
2023-05-24T22:34:11.207Z,15.03
2023-05-24T22:36:38.964Z,13.03
2023-05-24T22:39:06.234Z,14.47
2023-05-24T22:41:33.209Z,12.57
2023-05-24T22:44:00.352Z,11.63
2023-05-24T22:46:27.527Z,10.07
2023-05-24T22:48:56.620Z,14.73
2023-05-24T22:51:23.846Z,13.30
2023-05-24T22:53:52.738Z,10.77
2023-05-24T22:56:20.252Z,10.80
2023-05-24T22:58:47.142Z,12.50
2023-05-24T23:01:16.529Z,11.90
2023-05-24T23:03:45.035Z,13.00
2023-05-24T23:06:12.168Z,15.40
2023-05-24T23:08:39.425Z,12.93
2023-05-24T23:11:13.269Z,15.67
2023-05-24T23:13:42.324Z,14.17
2023-05-24T23:16:09.509Z,9.70
2023-05-24T23:18:37.825Z,11.70
2023-05-24T23:21:04.943Z,12.60
2023-05-24T23:23:31.889Z,11.83
2023-05-24T23:25:58.908Z,18.03
2023-05-24T23:28:25.908Z,11.20
2023-05-24T23:30:53.558Z,10.80
2023-05-24T23:33:20.802Z,12.37
2023-05-24T23:35:48.234Z,14.27
2023-05-24T23:38:15.930Z,11.60
2023-05-24T23:40:43.136Z,12.90
2023-05-24T23:43:10.053Z,12.33
2023-05-24T23:45:36.965Z,9.97
2023-05-24T23:48:04.192Z,12.73
2023-05-24T23:50:35.192Z,13.63
2023-05-24T23:53:09.965Z,10.20
2023-05-24T23:55:37.006Z,11.07
2023-05-24T23:58:03.935Z,13.47
